sensor_id;sensor_type;location;lat;lon;timestamp;P1;durP1;ratioP1;P2;durP2;ratioP2
10717;SDS011;13513;42.700;23.124;2022-10-16T00:00:07;10.90;;;7.80;;
10717;SDS011;13513;42.700;23.124;2022-10-16T00:02:41;11.67;;;7.73;;
10717;SDS011;13513;42.700;23.124;2022-10-16T00:05:12;11.23;;;7.17;;
10717;SDS011;13513;42.700;23.124;2022-10-16T00:07:43;10.13;;;6.70;;
10717;SDS011;13513;42.700;23.124;2022-10-16T00:10:14;8.67;;;6.83;;
10717;SDS011;13513;42.700;23.124;2022-10-16T00:12:45;10.27;;;7.00;;
10717;SDS011;13513;42.700;23.124;2022-10-16T00:15:16;9.30;;;6.63;;
10717;SDS011;13513;42.700;23.124;2022-10-16T00:17:46;11.00;;;7.17;;
10717;SDS011;13513;42.700;23.124;2022-10-16T00:20:17;10.07;;;7.17;;
10717;SDS011;13513;42.700;23.124;2022-10-16T00:22:50;9.83;;;7.37;;
10717;SDS011;13513;42.700;23.124;2022-10-16T00:25:22;10.30;;;6.93;;
10717;SDS011;13513;42.700;23.124;2022-10-16T00:27:53;12.37;;;7.50;;
10717;SDS011;13513;42.700;23.124;2022-10-16T00:30:24;10.67;;;7.13;;
10717;SDS011;13513;42.700;23.124;2022-10-16T00:32:55;7.73;;;6.23;;
10717;SDS011;13513;42.700;23.124;2022-10-16T00:35:26;8.93;;;6.47;;
10717;SDS011;13513;42.700;23.124;2022-10-16T00:37:57;9.30;;;6.63;;
10717;SDS011;13513;42.700;23.124;2022-10-16T00:40:28;14.17;;;8.10;;
10717;SDS011;13513;42.700;23.124;2022-10-16T00:42:59;11.77;;;8.20;;
10717;SDS011;13513;42.700;23.124;2022-10-16T00:45:30;12.40;;;8.20;;
10717;SDS011;13513;42.700;23.124;2022-10-16T00:48:00;11.13;;;7.50;;
10717;SDS011;13513;42.700;23.124;2022-10-16T00:50:31;9.33;;;7.17;;
10717;SDS011;13513;42.700;23.124;2022-10-16T00:53:03;10.50;;;6.80;;
10717;SDS011;13513;42.700;23.124;2022-10-16T00:55:34;10.47;;;7.43;;
10717;SDS011;13513;42.700;23.124;2022-10-16T00:58:05;13.10;;;8.03;;
10717;SDS011;13513;42.700;23.124;2022-10-16T01:00:36;9.87;;;7.13;;
10717;SDS011;13513;42.700;23.124;2022-10-16T01:03:22;12.07;;;8.03;;
10717;SDS011;13513;42.700;23.124;2022-10-16T01:05:59;13.77;;;8.20;;
10717;SDS011;13513;42.700;23.124;2022-10-16T01:11:23;14.67;;;8.47;;
10717;SDS011;13513;42.700;23.124;2022-10-16T01:13:52;14.37;;;7.90;;
10717;SDS011;13513;42.700;23.124;2022-10-16T01:16:39;9.50;;;7.43;;
10717;SDS011;13513;42.700;23.124;2022-10-16T01:19:14;10.03;;;8.07;;
10717;SDS011;13513;42.700;23.124;2022-10-16T01:21:48;11.43;;;8.67;;
10717;SDS011;13513;42.700;23.124;2022-10-16T01:24:35;17.13;;;10.10;;
10717;SDS011;13513;42.700;23.124;2022-10-16T01:27:13;10.27;;;7.60;;
10717;SDS011;13513;42.700;23.124;2022-10-16T01:35:11;12.43;;;8.00;;
10717;SDS011;13513;42.700;23.124;2022-10-16T01:37:57;10.97;;;7.83;;
10717;SDS011;13513;42.700;23.124;2022-10-16T01:40:29;9.07;;;7.43;;
10717;SDS011;13513;42.700;23.124;2022-10-16T01:43:08;10.50;;;7.47;;
10717;SDS011;13513;42.700;23.124;2022-10-16T01:45:42;11.60;;;8.00;;
10717;SDS011;13513;42.700;23.124;2022-10-16T01:48:19;13.97;;;8.03;;
10717;SDS011;13513;42.700;23.124;2022-10-16T01:50:59;13.20;;;8.00;;
10717;SDS011;13513;42.700;23.124;2022-10-16T01:53:26;12.20;;;8.00;;
10717;SDS011;13513;42.700;23.124;2022-10-16T01:55:58;10.60;;;7.80;;
10717;SDS011;13513;42.700;23.124;2022-10-16T01:58:30;10.47;;;7.40;;
10717;SDS011;13513;42.700;23.124;2022-10-16T02:01:02;15.17;;;8.20;;
10717;SDS011;13513;42.700;23.124;2022-10-16T02:03:34;10.67;;;8.33;;
10717;SDS011;13513;42.700;23.124;2022-10-16T02:06:06;9.03;;;7.83;;
10717;SDS011;13513;42.700;23.124;2022-10-16T02:08:38;10.27;;;8.00;;
10717;SDS011;13513;42.700;23.124;2022-10-16T02:11:09;10.90;;;8.33;;
10717;SDS011;13513;42.700;23.124;2022-10-16T02:13:48;13.13;;;7.90;;
10717;SDS011;13513;42.700;23.124;2022-10-16T02:16:18;9.40;;;7.93;;
10717;SDS011;13513;42.700;23.124;2022-10-16T02:18:49;14.20;;;9.17;;
10717;SDS011;13513;42.700;23.124;2022-10-16T02:21:35;11.07;;;8.37;;
10717;SDS011;13513;42.700;23.124;2022-10-16T02:24:01;12.70;;;7.83;;
10717;SDS011;13513;42.700;23.124;2022-10-16T02:26:30;11.87;;;7.90;;
10717;SDS011;13513;42.700;23.124;2022-10-16T02:29:02;10.07;;;8.17;;
10717;SDS011;13513;42.700;23.124;2022-10-16T02:31:34;12.00;;;7.90;;
10717;SDS011;13513;42.700;23.124;2022-10-16T02:34:05;17.03;;;8.27;;
10717;SDS011;13513;42.700;23.124;2022-10-16T02:36:37;11.63;;;8.07;;
10717;SDS011;13513;42.700;23.124;2022-10-16T02:39:09;10.47;;;8.27;;
10717;SDS011;13513;42.700;23.124;2022-10-16T02:41:40;10.67;;;9.03;;
10717;SDS011;13513;42.700;23.124;2022-10-16T02:44:11;13.93;;;9.67;;
10717;SDS011;13513;42.700;23.124;2022-10-16T02:46:42;13.40;;;9.47;;
10717;SDS011;13513;42.700;23.124;2022-10-16T02:49:13;12.70;;;8.37;;
10717;SDS011;13513;42.700;23.124;2022-10-16T02:51:44;15.27;;;8.13;;
10717;SDS011;13513;42.700;23.124;2022-10-16T02:54:14;9.13;;;8.17;;
10717;SDS011;13513;42.700;23.124;2022-10-16T02:56:45;10.37;;;8.13;;
10717;SDS011;13513;42.700;23.124;2022-10-16T02:59:19;11.63;;;9.20;;
10717;SDS011;13513;42.700;23.124;2022-10-16T03:01:55;51.37;;;37.10;;
10717;SDS011;13513;42.700;23.124;2022-10-16T03:04:26;33.80;;;22.90;;
10717;SDS011;13513;42.700;23.124;2022-10-16T03:06:57;14.63;;;9.53;;
10717;SDS011;13513;42.700;23.124;2022-10-16T03:09:27;10.83;;;8.70;;
10717;SDS011;13513;42.700;23.124;2022-10-16T03:11:57;11.60;;;8.17;;
10717;SDS011;13513;42.700;23.124;2022-10-16T03:14:28;15.37;;;8.00;;
10717;SDS011;13513;42.700;23.124;2022-10-16T03:16:59;15.37;;;8.10;;
10717;SDS011;13513;42.700;23.124;2022-10-16T03:19:30;11.13;;;7.77;;
10717;SDS011;13513;42.700;23.124;2022-10-16T03:22:01;10.30;;;7.23;;
10717;SDS011;13513;42.700;23.124;2022-10-16T03:24:36;10.50;;;7.33;;
10717;SDS011;13513;42.700;23.124;2022-10-16T03:27:06;11.57;;;7.80;;
10717;SDS011;13513;42.700;23.124;2022-10-16T03:29:37;10.37;;;7.53;;
10717;SDS011;13513;42.700;23.124;2022-10-16T03:32:09;11.50;;;7.17;;
10717;SDS011;13513;42.700;23.124;2022-10-16T03:34:39;9.60;;;7.23;;
10717;SDS011;13513;42.700;23.124;2022-10-16T03:37:11;9.50;;;7.40;;
10717;SDS011;13513;42.700;23.124;2022-10-16T03:39:42;8.33;;;6.70;;
10717;SDS011;13513;42.700;23.124;2022-10-16T03:42:12;9.77;;;7.40;;
10717;SDS011;13513;42.700;23.124;2022-10-16T03:44:43;11.47;;;7.67;;
10717;SDS011;13513;42.700;23.124;2022-10-16T03:47:13;10.60;;;7.50;;
10717;SDS011;13513;42.700;23.124;2022-10-16T03:49:44;13.07;;;6.90;;
10717;SDS011;13513;42.700;23.124;2022-10-16T03:52:15;10.30;;;7.60;;
10717;SDS011;13513;42.700;23.124;2022-10-16T03:54:45;10.07;;;6.80;;
10717;SDS011;13513;42.700;23.124;2022-10-16T03:57:16;10.73;;;6.87;;
10717;SDS011;13513;42.700;23.124;2022-10-16T03:59:46;10.57;;;7.33;;
10717;SDS011;13513;42.700;23.124;2022-10-16T04:02:17;9.97;;;7.20;;
10717;SDS011;13513;42.700;23.124;2022-10-16T04:04:48;10.20;;;6.97;;
10717;SDS011;13513;42.700;23.124;2022-10-16T04:07:19;21.90;;;16.27;;
10717;SDS011;13513;42.700;23.124;2022-10-16T04:09:50;20.20;;;15.40;;
10717;SDS011;13513;42.700;23.124;2022-10-16T04:12:21;14.73;;;10.93;;
10717;SDS011;13513;42.700;23.124;2022-10-16T04:14:53;10.13;;;7.60;;
10717;SDS011;13513;42.700;23.124;2022-10-16T04:17:23;11.30;;;7.20;;
10717;SDS011;13513;42.700;23.124;2022-10-16T04:19:54;12.77;;;7.53;;
10717;SDS011;13513;42.700;23.124;2022-10-16T04:22:25;11.80;;;6.97;;
10717;SDS011;13513;42.700;23.124;2022-10-16T04:24:56;8.97;;;7.40;;
10717;SDS011;13513;42.700;23.124;2022-10-16T04:27:27;10.47;;;6.90;;
10717;SDS011;13513;42.700;23.124;2022-10-16T04:30:01;15.60;;;7.53;;
10717;SDS011;13513;42.700;23.124;2022-10-16T04:32:33;9.13;;;7.20;;
10717;SDS011;13513;42.700;23.124;2022-10-16T04:35:06;10.53;;;7.10;;
10717;SDS011;13513;42.700;23.124;2022-10-16T04:37:38;13.27;;;8.87;;
10717;SDS011;13513;42.700;23.124;2022-10-16T04:40:11;14.37;;;9.30;;
10717;SDS011;13513;42.700;23.124;2022-10-16T04:42:43;11.83;;;8.90;;
10717;SDS011;13513;42.700;23.124;2022-10-16T04:45:14;13.07;;;9.10;;
10717;SDS011;13513;42.700;23.124;2022-10-16T04:47:45;11.83;;;9.23;;
10717;SDS011;13513;42.700;23.124;2022-10-16T04:50:16;16.33;;;10.27;;
10717;SDS011;13513;42.700;23.124;2022-10-16T04:52:47;14.10;;;9.87;;
10717;SDS011;13513;42.700;23.124;2022-10-16T04:55:18;13.17;;;9.83;;
10717;SDS011;13513;42.700;23.124;2022-10-16T04:57:48;15.27;;;10.40;;
10717;SDS011;13513;42.700;23.124;2022-10-16T05:00:18;13.23;;;9.70;;
10717;SDS011;13513;42.700;23.124;2022-10-16T05:02:50;12.43;;;9.33;;
10717;SDS011;13513;42.700;23.124;2022-10-16T05:05:19;12.77;;;9.43;;
10717;SDS011;13513;42.700;23.124;2022-10-16T05:07:50;10.93;;;8.40;;
10717;SDS011;13513;42.700;23.124;2022-10-16T05:10:21;12.43;;;8.70;;
10717;SDS011;13513;42.700;23.124;2022-10-16T05:12:52;10.57;;;8.53;;
10717;SDS011;13513;42.700;23.124;2022-10-16T05:15:23;9.60;;;7.57;;
10717;SDS011;13513;42.700;23.124;2022-10-16T05:17:54;13.50;;;10.07;;
10717;SDS011;13513;42.700;23.124;2022-10-16T05:20:25;14.37;;;9.00;;
10717;SDS011;13513;42.700;23.124;2022-10-16T05:22:56;11.83;;;10.40;;
10717;SDS011;13513;42.700;23.124;2022-10-16T05:25:26;10.53;;;8.70;;
10717;SDS011;13513;42.700;23.124;2022-10-16T05:27:57;11.73;;;7.00;;
10717;SDS011;13513;42.700;23.124;2022-10-16T05:30:30;7.20;;;5.97;;
10717;SDS011;13513;42.700;23.124;2022-10-16T05:33:01;8.07;;;5.50;;
10717;SDS011;13513;42.700;23.124;2022-10-16T05:35:31;11.57;;;5.42;;
10717;SDS011;13513;42.700;23.124;2022-10-16T05:38:03;6.65;;;5.60;;
10717;SDS011;13513;42.700;23.124;2022-10-16T05:40:34;8.05;;;5.50;;
10717;SDS011;13513;42.700;23.124;2022-10-16T05:43:03;9.73;;;5.47;;
10717;SDS011;13513;42.700;23.124;2022-10-16T05:45:35;8.38;;;6.67;;
10717;SDS011;13513;42.700;23.124;2022-10-16T05:48:06;7.10;;;6.10;;
10717;SDS011;13513;42.700;23.124;2022-10-16T05:50:37;9.13;;;6.45;;
10717;SDS011;13513;42.700;23.124;2022-10-16T05:53:08;6.15;;;5.55;;
10717;SDS011;13513;42.700;23.124;2022-10-16T05:55:39;10.20;;;5.90;;
10717;SDS011;13513;42.700;23.124;2022-10-16T05:58:09;8.70;;;6.03;;
10717;SDS011;13513;42.700;23.124;2022-10-16T06:00:40;7.40;;;5.95;;
10717;SDS011;13513;42.700;23.124;2022-10-16T06:03:10;6.28;;;5.67;;
10717;SDS011;13513;42.700;23.124;2022-10-16T06:05:47;8.40;;;5.50;;
10717;SDS011;13513;42.700;23.124;2022-10-16T06:08:13;7.72;;;4.85;;
10717;SDS011;13513;42.700;23.124;2022-10-16T06:10:44;8.98;;;5.12;;
10717;SDS011;13513;42.700;23.124;2022-10-16T06:13:15;7.33;;;5.45;;
10717;SDS011;13513;42.700;23.124;2022-10-16T06:15:46;6.05;;;5.45;;
10717;SDS011;13513;42.700;23.124;2022-10-16T06:18:17;6.62;;;5.62;;
10717;SDS011;13513;42.700;23.124;2022-10-16T06:20:48;9.63;;;6.30;;
10717;SDS011;13513;42.700;23.124;2022-10-16T06:23:18;8.90;;;6.30;;
10717;SDS011;13513;42.700;23.124;2022-10-16T06:25:50;8.23;;;5.67;;
10717;SDS011;13513;42.700;23.124;2022-10-16T06:28:21;9.33;;;6.60;;
10717;SDS011;13513;42.700;23.124;2022-10-16T06:30:58;53.75;;;18.95;;
10717;SDS011;13513;42.700;23.124;2022-10-16T06:33:29;16.60;;;8.40;;
10717;SDS011;13513;42.700;23.124;2022-10-16T06:36:06;9.48;;;6.78;;
10717;SDS011;13513;42.700;23.124;2022-10-16T06:38:39;11.73;;;8.58;;
10717;SDS011;13513;42.700;23.124;2022-10-16T06:41:16;10.55;;;8.23;;
10717;SDS011;13513;42.700;23.124;2022-10-16T06:43:42;15.55;;;7.95;;
10717;SDS011;13513;42.700;23.124;2022-10-16T06:46:16;14.38;;;10.25;;
10717;SDS011;13513;42.700;23.124;2022-10-16T06:48:49;9.38;;;7.17;;
10717;SDS011;13513;42.700;23.124;2022-10-16T06:51:20;11.17;;;7.57;;
10717;SDS011;13513;42.700;23.124;2022-10-16T06:53:54;10.48;;;6.95;;
10717;SDS011;13513;42.700;23.124;2022-10-16T06:56:26;8.60;;;6.60;;
10717;SDS011;13513;42.700;23.124;2022-10-16T06:58:57;9.00;;;6.72;;
10717;SDS011;13513;42.700;23.124;2022-10-16T07:01:28;7.40;;;6.13;;
10717;SDS011;13513;42.700;23.124;2022-10-16T07:03:59;7.40;;;5.85;;
10717;SDS011;13513;42.700;23.124;2022-10-16T07:06:32;10.00;;;6.35;;
10717;SDS011;13513;42.700;23.124;2022-10-16T07:09:05;7.60;;;5.87;;
10717;SDS011;13513;42.700;23.124;2022-10-16T07:11:36;7.85;;;5.50;;
10717;SDS011;13513;42.700;23.124;2022-10-16T07:14:27;7.28;;;5.55;;
10717;SDS011;13513;42.700;23.124;2022-10-16T07:16:46;8.03;;;6.03;;
10717;SDS011;13513;42.700;23.124;2022-10-16T07:19:16;7.78;;;5.10;;
10717;SDS011;13513;42.700;23.124;2022-10-16T07:21:47;6.10;;;5.00;;
10717;SDS011;13513;42.700;23.124;2022-10-16T07:24:18;6.22;;;5.40;;
10717;SDS011;13513;42.700;23.124;2022-10-16T07:26:49;6.35;;;5.10;;
10717;SDS011;13513;42.700;23.124;2022-10-16T07:29:20;6.87;;;5.45;;
10717;SDS011;13513;42.700;23.124;2022-10-16T07:31:52;6.75;;;5.67;;
10717;SDS011;13513;42.700;23.124;2022-10-16T07:34:23;7.65;;;6.10;;
10717;SDS011;13513;42.700;23.124;2022-10-16T07:36:54;6.95;;;5.78;;
10717;SDS011;13513;42.700;23.124;2022-10-16T07:39:24;11.20;;;6.15;;
10717;SDS011;13513;42.700;23.124;2022-10-16T07:41:54;6.40;;;4.90;;
10717;SDS011;13513;42.700;23.124;2022-10-16T07:44:25;10.18;;;6.33;;
10717;SDS011;13513;42.700;23.124;2022-10-16T07:46:55;10.75;;;6.15;;
10717;SDS011;13513;42.700;23.124;2022-10-16T07:49:26;9.53;;;5.60;;
10717;SDS011;13513;42.700;23.124;2022-10-16T07:51:59;8.20;;;6.03;;
10717;SDS011;13513;42.700;23.124;2022-10-16T07:54:31;9.53;;;6.50;;
10717;SDS011;13513;42.700;23.124;2022-10-16T07:57:02;7.67;;;5.75;;
10717;SDS011;13513;42.700;23.124;2022-10-16T07:59:32;7.75;;;6.17;;
10717;SDS011;13513;42.700;23.124;2022-10-16T08:02:03;8.50;;;5.90;;
10717;SDS011;13513;42.700;23.124;2022-10-16T08:04:34;9.05;;;6.05;;
10717;SDS011;13513;42.700;23.124;2022-10-16T08:07:06;8.00;;;6.37;;
10717;SDS011;13513;42.700;23.124;2022-10-16T08:09:36;11.20;;;6.97;;
10717;SDS011;13513;42.700;23.124;2022-10-16T08:12:08;8.48;;;7.37;;
10717;SDS011;13513;42.700;23.124;2022-10-16T08:14:39;14.55;;;7.08;;
10717;SDS011;13513;42.700;23.124;2022-10-16T08:17:09;8.38;;;7.00;;
10717;SDS011;13513;42.700;23.124;2022-10-16T08:19:45;10.28;;;7.55;;
10717;SDS011;13513;42.700;23.124;2022-10-16T08:22:16;9.08;;;7.05;;
10717;SDS011;13513;42.700;23.124;2022-10-16T08:24:47;9.60;;;6.62;;
10717;SDS011;13513;42.700;23.124;2022-10-16T08:27:18;9.75;;;7.58;;
10717;SDS011;13513;42.700;23.124;2022-10-16T08:29:49;8.90;;;6.97;;
10717;SDS011;13513;42.700;23.124;2022-10-16T08:32:19;11.57;;;7.53;;
10717;SDS011;13513;42.700;23.124;2022-10-16T08:34:50;8.35;;;7.12;;
10717;SDS011;13513;42.700;23.124;2022-10-16T08:37:21;13.10;;;6.80;;
10717;SDS011;13513;42.700;23.124;2022-10-16T08:39:52;8.55;;;7.03;;
10717;SDS011;13513;42.700;23.124;2022-10-16T08:50:55;9.03;;;5.70;;
10717;SDS011;13513;42.700;23.124;2022-10-16T08:53:43;7.20;;;4.67;;
10717;SDS011;13513;42.700;23.124;2022-10-16T08:56:29;6.85;;;5.62;;
10717;SDS011;13513;42.700;23.124;2022-10-16T08:59:00;6.50;;;4.87;;
10717;SDS011;13513;42.700;23.124;2022-10-16T09:01:40;5.15;;;4.65;;
10717;SDS011;13513;42.700;23.124;2022-10-16T09:07:14;5.40;;;4.03;;
10717;SDS011;13513;42.700;23.124;2022-10-16T09:13:03;4.90;;;4.40;;
10717;SDS011;13513;42.700;23.124;2022-10-16T09:16:04;8.98;;;4.50;;
10717;SDS011;13513;42.700;23.124;2022-10-16T09:21:25;4.95;;;2.83;;
10717;SDS011;13513;42.700;23.124;2022-10-16T09:26:43;4.28;;;3.60;;
10717;SDS011;13513;42.700;23.124;2022-10-16T09:29:17;5.72;;;3.85;;
10717;SDS011;13513;42.700;23.124;2022-10-16T09:31:48;4.37;;;3.75;;
10717;SDS011;13513;42.700;23.124;2022-10-16T09:36:59;6.17;;;3.80;;
10717;SDS011;13513;42.700;23.124;2022-10-16T09:39:43;5.42;;;3.62;;
10717;SDS011;13513;42.700;23.124;2022-10-16T09:42:21;5.15;;;4.05;;
10717;SDS011;13513;42.700;23.124;2022-10-16T09:44:49;5.90;;;3.65;;
10717;SDS011;13513;42.700;23.124;2022-10-16T09:47:22;3.62;;;3.25;;
10717;SDS011;13513;42.700;23.124;2022-10-16T09:49:58;3.95;;;3.55;;
10717;SDS011;13513;42.700;23.124;2022-10-16T09:52:29;5.40;;;3.20;;
10717;SDS011;13513;42.700;23.124;2022-10-16T09:55:12;3.35;;;3.00;;
10717;SDS011;13513;42.700;23.124;2022-10-16T09:57:53;4.45;;;3.10;;
10717;SDS011;13513;42.700;23.124;2022-10-16T10:00:26;3.72;;;2.60;;
10717;SDS011;13513;42.700;23.124;2022-10-16T10:03:01;2.75;;;2.42;;
10717;SDS011;13513;42.700;23.124;2022-10-16T10:05:33;3.15;;;2.85;;
10717;SDS011;13513;42.700;23.124;2022-10-16T10:08:05;3.70;;;2.98;;
10717;SDS011;13513;42.700;23.124;2022-10-16T10:10:39;4.25;;;2.98;;
10717;SDS011;13513;42.700;23.124;2022-10-16T10:13:19;4.05;;;3.02;;
10717;SDS011;13513;42.700;23.124;2022-10-16T10:15:52;6.12;;;3.37;;
10717;SDS011;13513;42.700;23.124;2022-10-16T10:18:27;5.05;;;2.87;;
10717;SDS011;13513;42.700;23.124;2022-10-16T10:21:01;3.27;;;2.52;;
10717;SDS011;13513;42.700;23.124;2022-10-16T10:23:32;5.35;;;2.92;;
10717;SDS011;13513;42.700;23.124;2022-10-16T10:32:01;6.62;;;3.35;;
10717;SDS011;13513;42.700;23.124;2022-10-16T10:36:42;5.05;;;2.85;;
10717;SDS011;13513;42.700;23.124;2022-10-16T10:44:57;7.00;;;3.22;;
10717;SDS011;13513;42.700;23.124;2022-10-16T10:50:37;3.87;;;2.67;;
10717;SDS011;13513;42.700;23.124;2022-10-16T10:56:09;3.02;;;2.60;;
10717;SDS011;13513;42.700;23.124;2022-10-16T11:07:13;3.85;;;3.10;;
10717;SDS011;13513;42.700;23.124;2022-10-16T11:09:49;2.95;;;2.65;;
10717;SDS011;13513;42.700;23.124;2022-10-16T11:12:34;5.42;;;2.95;;
10717;SDS011;13513;42.700;23.124;2022-10-16T11:15:20;5.72;;;2.80;;
10717;SDS011;13513;42.700;23.124;2022-10-16T11:17:52;4.00;;;2.70;;
10717;SDS011;13513;42.700;23.124;2022-10-16T11:20:26;2.90;;;2.60;;
10717;SDS011;13513;42.700;23.124;2022-10-16T11:23:05;3.40;;;2.75;;
10717;SDS011;13513;42.700;23.124;2022-10-16T11:25:45;3.95;;;2.42;;
10717;SDS011;13513;42.700;23.124;2022-10-16T11:28:18;3.40;;;2.33;;
10717;SDS011;13513;42.700;23.124;2022-10-16T11:30:54;3.52;;;2.40;;
10717;SDS011;13513;42.700;23.124;2022-10-16T11:33:29;4.08;;;2.42;;
10717;SDS011;13513;42.700;23.124;2022-10-16T11:36:14;2.87;;;2.58;;
10717;SDS011;13513;42.700;23.124;2022-10-16T11:39:00;6.05;;;2.77;;
10717;SDS011;13513;42.700;23.124;2022-10-16T11:44:44;3.55;;;2.50;;
10717;SDS011;13513;42.700;23.124;2022-10-16T11:50:01;3.42;;;2.75;;
10717;SDS011;13513;42.700;23.124;2022-10-16T11:52:52;3.58;;;2.58;;
10717;SDS011;13513;42.700;23.124;2022-10-16T11:55:36;4.62;;;2.77;;
10717;SDS011;13513;42.700;23.124;2022-10-16T12:01:19;3.65;;;2.37;;
10717;SDS011;13513;42.700;23.124;2022-10-16T12:03:40;3.47;;;2.40;;
10717;SDS011;13513;42.700;23.124;2022-10-16T12:09:28;2.87;;;2.30;;
10717;SDS011;13513;42.700;23.124;2022-10-16T12:11:59;3.83;;;2.30;;
10717;SDS011;13513;42.700;23.124;2022-10-16T12:14:34;2.40;;;2.20;;
10717;SDS011;13513;42.700;23.124;2022-10-16T12:17:22;3.33;;;2.58;;
10717;SDS011;13513;42.700;23.124;2022-10-16T12:22:56;3.20;;;2.58;;
10717;SDS011;13513;42.700;23.124;2022-10-16T12:25:36;2.80;;;2.45;;
10717;SDS011;13513;42.700;23.124;2022-10-16T12:28:19;5.62;;;2.50;;
10717;SDS011;13513;42.700;23.124;2022-10-16T12:30:56;3.27;;;2.50;;
10717;SDS011;13513;42.700;23.124;2022-10-16T12:34:03;3.95;;;2.98;;
10717;SDS011;13513;42.700;23.124;2022-10-16T12:36:15;3.02;;;2.45;;
10717;SDS011;13513;42.700;23.124;2022-10-16T12:38:51;3.60;;;2.98;;
10717;SDS011;13513;42.700;23.124;2022-10-16T12:41:28;2.87;;;2.30;;
10717;SDS011;13513;42.700;23.124;2022-10-16T12:44:03;3.08;;;2.30;;
10717;SDS011;13513;42.700;23.124;2022-10-16T12:46:37;2.30;;;2.00;;
10717;SDS011;13513;42.700;23.124;2022-10-16T12:49:17;2.58;;;2.10;;
10717;SDS011;13513;42.700;23.124;2022-10-16T12:51:43;3.70;;;2.17;;
10717;SDS011;13513;42.700;23.124;2022-10-16T12:54:18;2.65;;;2.30;;
10717;SDS011;13513;42.700;23.124;2022-10-16T13:03:02;7.53;;;2.62;;
10717;SDS011;13513;42.700;23.124;2022-10-16T13:08:24;3.65;;;2.12;;
10717;SDS011;13513;42.700;23.124;2022-10-16T13:11:00;3.27;;;2.58;;
10717;SDS011;13513;42.700;23.124;2022-10-16T13:16:50;2.90;;;2.60;;
10717;SDS011;13513;42.700;23.124;2022-10-16T13:19:33;3.85;;;2.80;;
10717;SDS011;13513;42.700;23.124;2022-10-16T13:24:54;5.95;;;2.60;;
10717;SDS011;13513;42.700;23.124;2022-10-16T13:27:38;4.72;;;2.50;;
10717;SDS011;13513;42.700;23.124;2022-10-16T13:30:17;3.52;;;2.70;;
10717;SDS011;13513;42.700;23.124;2022-10-16T13:32:51;3.22;;;2.30;;
10717;SDS011;13513;42.700;23.124;2022-10-16T13:35:32;2.55;;;2.10;;
10717;SDS011;13513;42.700;23.124;2022-10-16T13:38:18;3.65;;;2.17;;
10717;SDS011;13513;42.700;23.124;2022-10-16T13:40:55;3.47;;;2.35;;
10717;SDS011;13513;42.700;23.124;2022-10-16T13:46:17;3.77;;;3.05;;
10717;SDS011;13513;42.700;23.124;2022-10-16T13:49:02;4.28;;;2.05;;
10717;SDS011;13513;42.700;23.124;2022-10-16T13:51:29;1.87;;;1.72;;
10717;SDS011;13513;42.700;23.124;2022-10-16T13:53:59;4.22;;;3.05;;
10717;SDS011;13513;42.700;23.124;2022-10-16T13:56:32;2.75;;;2.37;;
10717;SDS011;13513;42.700;23.124;2022-10-16T13:59:03;4.67;;;2.50;;
10717;SDS011;13513;42.700;23.124;2022-10-16T14:01:41;4.45;;;2.20;;
10717;SDS011;13513;42.700;23.124;2022-10-16T14:04:12;2.20;;;2.00;;
10717;SDS011;13513;42.700;23.124;2022-10-16T14:06:46;2.15;;;1.70;;
10717;SDS011;13513;42.700;23.124;2022-10-16T14:09:21;2.12;;;1.72;;
10717;SDS011;13513;42.700;23.124;2022-10-16T14:12:10;3.77;;;2.27;;
10717;SDS011;13513;42.700;23.124;2022-10-16T14:14:35;1.92;;;1.72;;
10717;SDS011;13513;42.700;23.124;2022-10-16T14:17:01;3.10;;;2.12;;
10717;SDS011;13513;42.700;23.124;2022-10-16T14:19:32;4.87;;;2.20;;
10717;SDS011;13513;42.700;23.124;2022-10-16T14:22:03;2.33;;;2.12;;
10717;SDS011;13513;42.700;23.124;2022-10-16T14:24:36;2.50;;;2.05;;
10717;SDS011;13513;42.700;23.124;2022-10-16T14:35:34;9.00;;;2.75;;
10717;SDS011;13513;42.700;23.124;2022-10-16T14:38:05;3.25;;;1.92;;
10717;SDS011;13513;42.700;23.124;2022-10-16T14:40:37;4.12;;;2.00;;
10717;SDS011;13513;42.700;23.124;2022-10-16T14:43:14;3.50;;;2.20;;
10717;SDS011;13513;42.700;23.124;2022-10-16T14:45:41;2.58;;;2.10;;
10717;SDS011;13513;42.700;23.124;2022-10-16T14:48:14;2.27;;;1.90;;
10717;SDS011;13513;42.700;23.124;2022-10-16T14:50:44;6.12;;;2.10;;
10717;SDS011;13513;42.700;23.124;2022-10-16T14:53:15;3.70;;;2.27;;
10717;SDS011;13513;42.700;23.124;2022-10-16T14:55:46;2.10;;;1.90;;
10717;SDS011;13513;42.700;23.124;2022-10-16T14:58:19;3.87;;;2.15;;
10717;SDS011;13513;42.700;23.124;2022-10-16T15:00:50;4.47;;;2.47;;
10717;SDS011;13513;42.700;23.124;2022-10-16T15:03:20;7.70;;;3.37;;
10717;SDS011;13513;42.700;23.124;2022-10-16T15:05:51;3.17;;;2.60;;
10717;SDS011;13513;42.700;23.124;2022-10-16T15:08:21;6.62;;;2.80;;
10717;SDS011;13513;42.700;23.124;2022-10-16T15:10:52;4.95;;;3.30;;
10717;SDS011;13513;42.700;23.124;2022-10-16T15:13:21;5.45;;;2.50;;
10717;SDS011;13513;42.700;23.124;2022-10-16T15:15:53;7.17;;;3.40;;
10717;SDS011;13513;42.700;23.124;2022-10-16T15:18:22;2.95;;;2.65;;
10717;SDS011;13513;42.700;23.124;2022-10-16T15:20:53;5.60;;;3.20;;
10717;SDS011;13513;42.700;23.124;2022-10-16T15:23:24;4.37;;;2.37;;
10717;SDS011;13513;42.700;23.124;2022-10-16T15:25:55;2.87;;;2.52;;
10717;SDS011;13513;42.700;23.124;2022-10-16T15:28:26;4.33;;;2.35;;
10717;SDS011;13513;42.700;23.124;2022-10-16T15:30:58;4.78;;;3.05;;
10717;SDS011;13513;42.700;23.124;2022-10-16T15:33:28;3.12;;;2.80;;
10717;SDS011;13513;42.700;23.124;2022-10-16T15:36:00;4.67;;;2.60;;
10717;SDS011;13513;42.700;23.124;2022-10-16T15:38:32;4.67;;;2.33;;
10717;SDS011;13513;42.700;23.124;2022-10-16T15:41:03;4.62;;;2.52;;
10717;SDS011;13513;42.700;23.124;2022-10-16T15:43:34;3.80;;;2.95;;
10717;SDS011;13513;42.700;23.124;2022-10-16T15:46:06;5.67;;;3.02;;
10717;SDS011;13513;42.700;23.124;2022-10-16T15:48:37;7.20;;;3.92;;
10717;SDS011;13513;42.700;23.124;2022-10-16T15:51:08;13.17;;;6.30;;
10717;SDS011;13513;42.700;23.124;2022-10-16T15:53:39;6.53;;;3.85;;
10717;SDS011;13513;42.700;23.124;2022-10-16T15:56:10;4.80;;;3.60;;
10717;SDS011;13513;42.700;23.124;2022-10-16T15:58:42;5.53;;;4.20;;
10717;SDS011;13513;42.700;23.124;2022-10-16T16:01:13;6.27;;;4.00;;
10717;SDS011;13513;42.700;23.124;2022-10-16T16:03:44;6.72;;;4.20;;
10717;SDS011;13513;42.700;23.124;2022-10-16T16:06:15;6.97;;;3.80;;
10717;SDS011;13513;42.700;23.124;2022-10-16T16:08:45;11.88;;;5.03;;
10717;SDS011;13513;42.700;23.124;2022-10-16T16:11:16;12.97;;;6.03;;
10717;SDS011;13513;42.700;23.124;2022-10-16T16:13:47;5.97;;;4.90;;
10717;SDS011;13513;42.700;23.124;2022-10-16T16:16:18;4.97;;;3.80;;
10717;SDS011;13513;42.700;23.124;2022-10-16T16:18:52;7.28;;;4.15;;
10717;SDS011;13513;42.700;23.124;2022-10-16T16:21:22;13.03;;;8.55;;
10717;SDS011;13513;42.700;23.124;2022-10-16T16:23:52;8.40;;;5.40;;
10717;SDS011;13513;42.700;23.124;2022-10-16T16:26:26;9.60;;;6.28;;
10717;SDS011;13513;42.700;23.124;2022-10-16T16:28:56;8.25;;;5.12;;
10717;SDS011;13513;42.700;23.124;2022-10-16T16:31:27;11.23;;;5.27;;
10717;SDS011;13513;42.700;23.124;2022-10-16T16:34:01;15.23;;;8.80;;
10717;SDS011;13513;42.700;23.124;2022-10-16T16:36:34;7.45;;;5.47;;
10717;SDS011;13513;42.700;23.124;2022-10-16T16:39:04;9.73;;;5.40;;
10717;SDS011;13513;42.700;23.124;2022-10-16T16:41:36;11.90;;;5.10;;